LFST 271030Z AUTO 18005KT 150V210 9999 BKN039 BKN045 OVC056 19/11 Q1011 NOSIG

TAF LFST 270500Z 2706/2806 34004KT 9999 BKN055 BKN070 TEMPO 2711/2806 -SHRA BKN025 PROB40 TEMPO 2719/2806 4000 SHRA

 

Temperature in degrees Celsius: 19
Dew Point Temperature in degrees Celsius: 11

 

http://openflyers.com/case/icingChart.php?chart=2&temperature=19&dewPoint=11